sensor_id;sensor_type;location;lat;lon;timestamp;P1;P4;P2;P0;N10;N4;N25;N1;N05;TS
85288;SPS30;75692;48.224;16.338;2024-01-27T00:02:07;0.8;;0.8;0.7;;;;;;
85288;SPS30;75692;48.224;16.338;2024-01-27T00:12:08;1.2;;1.3;1.1;;;;;;
85288;SPS30;75692;48.224;16.338;2024-01-27T00:22:07;0.8;;0.8;0.7;;;;;;
85288;SPS30;75692;48.224;16.338;2024-01-27T00:32:07;1.0;;1.0;1.0;;;;;;
85288;SPS30;75692;48.224;16.338;2024-01-27T00:42:07;0.8;;0.9;0.8;;;;;;
85288;SPS30;75692;48.224;16.338;2024-01-27T00:52:07;0.6;;0.6;0.6;;;;;;
85288;SPS30;75692;48.224;16.338;2024-01-27T01:02:07;1.0;;1.1;1.0;;;;;;
85288;SPS30;75692;48.224;16.338;2024-01-27T01:12:07;0.8;;0.9;0.8;;;;;;
85288;SPS30;75692;48.224;16.338;2024-01-27T01:22:07;0.9;;0.9;0.8;;;;;;
85288;SPS30;75692;48.224;16.338;2024-01-27T01:32:07;1.0;;1.0;0.9;;;;;;
85288;SPS30;75692;48.224;16.338;2024-01-27T01:37:07;0.9;;0.9;0.9;;;;;;
85288;SPS30;75692;48.224;16.338;2024-01-27T01:47:07;1.2;;1.2;1.2;;;;;;
85288;SPS30;75692;48.224;16.338;2024-01-27T01:57:07;1.2;;1.2;1.2;;;;;;
85288;SPS30;75692;48.224;16.338;2024-01-27T02:07:07;1.2;;1.2;1.1;;;;;;
85288;SPS30;75692;48.224;16.338;2024-01-27T02:17:07;1.7;;1.7;1.6;;;;;;
85288;SPS30;75692;48.224;16.338;2024-01-27T02:27:08;1.3;;1.3;1.2;;;;;;
85288;SPS30;75692;48.224;16.338;2024-01-27T02:37:07;1.5;;1.5;1.5;;;;;;
85288;SPS30;75692;48.224;16.338;2024-01-27T02:47:07;1.9;;1.9;1.8;;;;;;
85288;SPS30;75692;48.224;16.338;2024-01-27T02:57:07;1.7;;1.7;1.6;;;;;;
85288;SPS30;75692;48.224;16.338;2024-01-27T03:07:07;1.5;;1.5;1.4;;;;;;
85288;SPS30;75692;48.224;16.338;2024-01-27T03:17:07;2.0;;2.0;1.9;;;;;;
85288;SPS30;75692;48.224;16.338;2024-01-27T03:27:07;2.5;;2.5;2.4;;;;;;
85288;SPS30;75692;48.224;16.338;2024-01-27T03:37:08;2.5;;2.5;2.4;;;;;;
85288;SPS30;75692;48.224;16.338;2024-01-27T03:47:07;2.5;;2.5;2.4;;;;;;
85288;SPS30;75692;48.224;16.338;2024-01-27T03:57:07;2.7;;2.7;2.6;;;;;;
85288;SPS30;75692;48.224;16.338;2024-01-27T04:07:07;3.2;;3.2;3.0;;;;;;
85288;SPS30;75692;48.224;16.338;2024-01-27T04:17:08;2.4;;2.4;2.2;;;;;;
85288;SPS30;75692;48.224;16.338;2024-01-27T04:27:07;2.7;;2.7;2.6;;;;;;
85288;SPS30;75692;48.224;16.338;2024-01-27T04:37:07;2.9;;2.9;2.8;;;;;;
85288;SPS30;75692;48.224;16.338;2024-01-27T04:47:07;3.3;;3.3;3.2;;;;;;
85288;SPS30;75692;48.224;16.338;2024-01-27T04:57:07;3.0;;3.0;2.9;;;;;;
85288;SPS30;75692;48.224;16.338;2024-01-27T05:07:07;3.3;;3.3;3.1;;;;;;
85288;SPS30;75692;48.224;16.338;2024-01-27T05:17:08;2.6;;2.6;2.4;;;;;;
85288;SPS30;75692;48.224;16.338;2024-01-27T05:22:07;2.5;;2.5;2.4;;;;;;
85288;SPS30;75692;48.224;16.338;2024-01-27T05:32:07;3.0;;3.0;2.8;;;;;;
85288;SPS30;75692;48.224;16.338;2024-01-27T05:37:08;3.0;;3.0;2.9;;;;;;
85288;SPS30;75692;48.224;16.338;2024-01-27T05:47:07;2.9;;2.9;2.8;;;;;;
85288;SPS30;75692;48.224;16.338;2024-01-27T05:57:07;2.9;;2.9;2.8;;;;;;
85288;SPS30;75692;48.224;16.338;2024-01-27T06:07:07;3.2;;3.2;3.1;;;;;;
85288;SPS30;75692;48.224;16.338;2024-01-27T06:17:08;3.3;;3.3;3.1;;;;;;
85288;SPS30;75692;48.224;16.338;2024-01-27T06:27:07;3.4;;3.4;3.3;;;;;;
85288;SPS30;75692;48.224;16.338;2024-01-27T06:37:07;4.6;;4.6;4.3;;;;;;
85288;SPS30;75692;48.224;16.338;2024-01-27T06:47:07;4.1;;4.1;3.9;;;;;;
85288;SPS30;75692;48.224;16.338;2024-01-27T06:57:16;3.4;;3.4;3.3;;;;;;
85288;SPS30;75692;48.224;16.338;2024-01-27T07:02:07;3.1;;3.1;3.0;;;;;;
85288;SPS30;75692;48.224;16.338;2024-01-27T07:12:08;3.8;;3.8;3.6;;;;;;
85288;SPS30;75692;48.224;16.338;2024-01-27T07:22:07;3.9;;3.9;3.7;;;;;;
85288;SPS30;75692;48.224;16.338;2024-01-27T07:32:07;3.8;;3.8;3.6;;;;;;
85288;SPS30;75692;48.224;16.338;2024-01-27T07:42:08;3.7;;3.7;3.5;;;;;;
85288;SPS30;75692;48.224;16.338;2024-01-27T07:52:07;3.8;;3.8;3.6;;;;;;
85288;SPS30;75692;48.224;16.338;2024-01-27T07:57:07;4.3;;4.3;4.1;;;;;;
85288;SPS30;75692;48.224;16.338;2024-01-27T08:07:07;5.1;;5.1;4.9;;;;;;
85288;SPS30;75692;48.224;16.338;2024-01-27T08:17:08;3.8;;3.8;3.7;;;;;;
85288;SPS30;75692;48.224;16.338;2024-01-27T08:27:08;4.7;;4.7;4.5;;;;;;
85288;SPS30;75692;48.224;16.338;2024-01-27T08:37:15;4.4;;4.4;4.2;;;;;;
85288;SPS30;75692;48.224;16.338;2024-01-27T08:47:08;4.2;;4.2;4.0;;;;;;
85288;SPS30;75692;48.224;16.338;2024-01-27T08:52:08;4.3;;4.3;4.1;;;;;;
85288;SPS30;75692;48.224;16.338;2024-01-27T09:02:07;4.0;;4.0;3.8;;;;;;
85288;SPS30;75692;48.224;16.338;2024-01-27T09:12:08;4.6;;4.6;4.4;;;;;;
85288;SPS30;75692;48.224;16.338;2024-01-27T09:22:08;4.4;;4.4;4.2;;;;;;
85288;SPS30;75692;48.224;16.338;2024-01-27T09:32:08;4.5;;4.5;4.2;;;;;;
85288;SPS30;75692;48.224;16.338;2024-01-27T09:42:08;5.3;;5.3;5.0;;;;;;
85288;SPS30;75692;48.224;16.338;2024-01-27T09:47:08;5.4;;5.4;5.2;;;;;;
85288;SPS30;75692;48.224;16.338;2024-01-27T09:57:09;5.4;;5.4;5.2;;;;;;
85288;SPS30;75692;48.224;16.338;2024-01-27T10:07:08;5.1;;5.1;4.9;;;;;;
85288;SPS30;75692;48.224;16.338;2024-01-27T10:17:10;5.0;;5.0;4.8;;;;;;
85288;SPS30;75692;48.224;16.338;2024-01-27T10:27:09;5.5;;5.5;5.3;;;;;;
85288;SPS30;75692;48.224;16.338;2024-01-27T10:37:09;5.7;;5.7;5.4;;;;;;
85288;SPS30;75692;48.224;16.338;2024-01-27T10:47:08;5.3;;5.3;5.0;;;;;;
85288;SPS30;75692;48.224;16.338;2024-01-27T10:52:09;6.2;;6.2;5.9;;;;;;
85288;SPS30;75692;48.224;16.338;2024-01-27T11:02:09;5.4;;5.4;5.1;;;;;;
85288;SPS30;75692;48.224;16.338;2024-01-27T11:12:08;5.4;;5.4;5.1;;;;;;
85288;SPS30;75692;48.224;16.338;2024-01-27T11:22:08;5.2;;5.2;5.0;;;;;;
85288;SPS30;75692;48.224;16.338;2024-01-27T11:32:08;5.1;;5.1;4.8;;;;;;
85288;SPS30;75692;48.224;16.338;2024-01-27T11:42:09;5.8;;5.8;5.5;;;;;;
85288;SPS30;75692;48.224;16.338;2024-01-27T11:52:08;4.3;;4.3;4.1;;;;;;
85288;SPS30;75692;48.224;16.338;2024-01-27T12:02:08;4.0;;4.0;3.8;;;;;;
85288;SPS30;75692;48.224;16.338;2024-01-27T12:12:08;4.4;;4.5;4.2;;;;;;
85288;SPS30;75692;48.224;16.338;2024-01-27T12:22:20;4.2;;4.3;4.0;;;;;;
85288;SPS30;75692;48.224;16.338;2024-01-27T12:27:08;3.4;;3.4;3.2;;;;;;
85288;SPS30;75692;48.224;16.338;2024-01-27T12:32:08;4.6;;4.6;4.4;;;;;;
85288;SPS30;75692;48.224;16.338;2024-01-27T12:42:08;4.3;;4.3;4.1;;;;;;
85288;SPS30;75692;48.224;16.338;2024-01-27T12:52:08;4.4;;4.4;4.2;;;;;;
85288;SPS30;75692;48.224;16.338;2024-01-27T13:02:08;5.1;;5.1;4.8;;;;;;
85288;SPS30;75692;48.224;16.338;2024-01-27T13:12:08;4.1;;4.1;3.9;;;;;;
85288;SPS30;75692;48.224;16.338;2024-01-27T13:22:08;4.0;;4.0;3.8;;;;;;
85288;SPS30;75692;48.224;16.338;2024-01-27T13:32:08;5.6;;5.6;5.3;;;;;;
85288;SPS30;75692;48.224;16.338;2024-01-27T13:42:08;4.4;;4.4;4.2;;;;;;
85288;SPS30;75692;48.224;16.338;2024-01-27T13:52:08;5.2;;5.2;4.9;;;;;;
85288;SPS30;75692;48.224;16.338;2024-01-27T14:02:08;4.2;;4.2;4.0;;;;;;
85288;SPS30;75692;48.224;16.338;2024-01-27T14:12:08;4.7;;4.7;4.5;;;;;;
85288;SPS30;75692;48.224;16.338;2024-01-27T14:22:08;4.6;;4.6;4.3;;;;;;
85288;SPS30;75692;48.224;16.338;2024-01-27T14:32:08;4.0;;4.0;3.8;;;;;;
85288;SPS30;75692;48.224;16.338;2024-01-27T14:42:08;4.3;;4.3;4.1;;;;;;
85288;SPS30;75692;48.224;16.338;2024-01-27T14:52:08;4.1;;4.1;3.9;;;;;;
85288;SPS30;75692;48.224;16.338;2024-01-27T15:02:08;3.9;;3.9;3.7;;;;;;
85288;SPS30;75692;48.224;16.338;2024-01-27T15:12:08;3.9;;3.9;3.7;;;;;;
85288;SPS30;75692;48.224;16.338;2024-01-27T15:22:08;5.1;;5.1;4.9;;;;;;
85288;SPS30;75692;48.224;16.338;2024-01-27T15:32:08;5.1;;5.1;4.9;;;;;;
85288;SPS30;75692;48.224;16.338;2024-01-27T15:37:08;5.0;;5.0;4.8;;;;;;
85288;SPS30;75692;48.224;16.338;2024-01-27T15:47:08;5.8;;5.8;5.5;;;;;;
85288;SPS30;75692;48.224;16.338;2024-01-27T15:57:08;5.9;;6.0;5.6;;;;;;
85288;SPS30;75692;48.224;16.338;2024-01-27T16:07:08;6.1;;6.1;5.8;;;;;;
85288;SPS30;75692;48.224;16.338;2024-01-27T16:17:08;5.2;;5.2;4.9;;;;;;
85288;SPS30;75692;48.224;16.338;2024-01-27T16:27:08;7.4;;7.5;7.0;;;;;;
85288;SPS30;75692;48.224;16.338;2024-01-27T16:37:08;7.1;;7.1;6.7;;;;;;
85288;SPS30;75692;48.224;16.338;2024-01-27T16:47:08;5.6;;5.6;5.4;;;;;;
85288;SPS30;75692;48.224;16.338;2024-01-27T16:57:09;6.0;;6.0;5.8;;;;;;
85288;SPS30;75692;48.224;16.338;2024-01-27T17:07:08;6.6;;6.6;6.3;;;;;;
85288;SPS30;75692;48.224;16.338;2024-01-27T17:17:08;6.5;;6.5;6.2;;;;;;
85288;SPS30;75692;48.224;16.338;2024-01-27T17:27:08;5.7;;5.7;5.4;;;;;;
85288;SPS30;75692;48.224;16.338;2024-01-27T17:37:09;6.3;;6.3;6.0;;;;;;
85288;SPS30;75692;48.224;16.338;2024-01-27T17:47:08;6.2;;6.2;5.9;;;;;;
85288;SPS30;75692;48.224;16.338;2024-01-27T17:57:08;6.0;;6.0;5.7;;;;;;
85288;SPS30;75692;48.224;16.338;2024-01-27T18:07:08;5.4;;5.4;5.1;;;;;;
85288;SPS30;75692;48.224;16.338;2024-01-27T18:17:08;6.3;;6.4;6.0;;;;;;
85288;SPS30;75692;48.224;16.338;2024-01-27T18:27:08;6.1;;6.1;5.8;;;;;;
85288;SPS30;75692;48.224;16.338;2024-01-27T18:37:09;4.8;;4.8;4.6;;;;;;
85288;SPS30;75692;48.224;16.338;2024-01-27T18:47:08;6.1;;6.1;5.8;;;;;;
85288;SPS30;75692;48.224;16.338;2024-01-27T18:57:08;5.3;;5.4;5.1;;;;;;
85288;SPS30;75692;48.224;16.338;2024-01-27T19:07:08;4.3;;4.3;4.1;;;;;;
85288;SPS30;75692;48.224;16.338;2024-01-27T19:17:09;5.0;;5.0;4.8;;;;;;
85288;SPS30;75692;48.224;16.338;2024-01-27T19:27:08;4.5;;4.5;4.3;;;;;;
85288;SPS30;75692;48.224;16.338;2024-01-27T19:37:08;5.0;;5.0;4.7;;;;;;
85288;SPS30;75692;48.224;16.338;2024-01-27T19:47:08;5.9;;6.0;5.6;;;;;;
85288;SPS30;75692;48.224;16.338;2024-01-27T19:52:08;6.4;;6.4;6.0;;;;;;
85288;SPS30;75692;48.224;16.338;2024-01-27T20:02:08;5.3;;5.4;5.0;;;;;;
85288;SPS30;75692;48.224;16.338;2024-01-27T20:12:08;5.5;;5.6;5.3;;;;;;
85288;SPS30;75692;48.224;16.338;2024-01-27T20:22:08;5.6;;5.6;5.3;;;;;;
85288;SPS30;75692;48.224;16.338;2024-01-27T20:32:08;6.5;;6.5;6.2;;;;;;
85288;SPS30;75692;48.224;16.338;2024-01-27T20:42:08;5.2;;5.2;4.9;;;;;;
85288;SPS30;75692;48.224;16.338;2024-01-27T20:52:08;5.1;;5.1;4.8;;;;;;
85288;SPS30;75692;48.224;16.338;2024-01-27T21:02:08;5.1;;5.1;4.8;;;;;;
85288;SPS30;75692;48.224;16.338;2024-01-27T21:12:08;5.5;;5.6;5.2;;;;;;
85288;SPS30;75692;48.224;16.338;2024-01-27T21:22:08;5.2;;5.2;4.9;;;;;;
85288;SPS30;75692;48.224;16.338;2024-01-27T21:32:08;4.9;;5.0;4.6;;;;;;
85288;SPS30;75692;48.224;16.338;2024-01-27T21:42:08;5.4;;5.5;5.1;;;;;;
85288;SPS30;75692;48.224;16.338;2024-01-27T21:52:08;5.2;;5.3;5.0;;;;;;
85288;SPS30;75692;48.224;16.338;2024-01-27T22:02:08;5.4;;5.4;5.1;;;;;;
85288;SPS30;75692;48.224;16.338;2024-01-27T22:12:08;6.5;;6.6;6.2;;;;;;
85288;SPS30;75692;48.224;16.338;2024-01-27T22:22:08;5.4;;5.4;5.1;;;;;;
85288;SPS30;75692;48.224;16.338;2024-01-27T22:32:08;6.6;;6.7;6.2;;;;;;
85288;SPS30;75692;48.224;16.338;2024-01-27T22:42:08;8.0;;8.1;7.5;;;;;;
85288;SPS30;75692;48.224;16.338;2024-01-27T22:52:08;6.1;;6.2;5.8;;;;;;
85288;SPS30;75692;48.224;16.338;2024-01-27T22:57:08;5.3;;5.3;5.0;;;;;;
85288;SPS30;75692;48.224;16.338;2024-01-27T23:07:08;5.4;;5.4;5.1;;;;;;
85288;SPS30;75692;48.224;16.338;2024-01-27T23:17:08;12.3;;12.5;11.5;;;;;;
85288;SPS30;75692;48.224;16.338;2024-01-27T23:27:08;5.2;;5.2;4.9;;;;;;
85288;SPS30;75692;48.224;16.338;2024-01-27T23:37:08;5.5;;5.5;5.2;;;;;;
85288;SPS30;75692;48.224;16.338;2024-01-27T23:47:09;5.0;;5.0;4.7;;;;;;
85288;SPS30;75692;48.224;16.338;2024-01-27T23:57:08;5.0;;5.0;4.7;;;;;;
